createdAt,value
2018-09-15T00:02:04.173Z,95.60
2018-09-15T00:04:32.233Z,96.20
2018-09-15T00:07:00.305Z,96.30
2018-09-15T00:09:28.370Z,95.80
2018-09-15T00:11:56.436Z,95.70
2018-09-15T00:14:24.493Z,95.20
2018-09-15T00:16:52.556Z,94.40
2018-09-15T00:19:20.613Z,93.70
2018-09-15T00:21:48.673Z,93.30
2018-09-15T00:24:16.744Z,92.80
2018-09-15T00:26:44.813Z,92.50
2018-09-15T00:29:12.870Z,92.80
2018-09-15T00:31:40.930Z,94.60
2018-09-15T00:34:08.993Z,95.60
2018-09-15T00:36:37.065Z,95.00
2018-09-15T00:39:08.280Z,94.40
2018-09-15T00:41:36.327Z,94.10
2018-09-15T00:44:04.394Z,94.60
2018-09-15T00:46:32.444Z,95.40
2018-09-15T00:49:00.513Z,95.80
2018-09-15T00:51:28.571Z,96.10
2018-09-15T00:53:56.625Z,96.10
2018-09-15T00:56:24.690Z,95.80
2018-09-15T00:58:52.765Z,95.60
2018-09-15T01:01:20.808Z,95.80
2018-09-15T01:03:48.869Z,95.90
2018-09-15T01:06:16.919Z,96.70
2018-09-15T01:08:44.981Z,97.20
2018-09-15T01:11:13.029Z,98.20
2018-09-15T01:13:41.084Z,97.80
2018-09-15T01:16:09.138Z,98.00
2018-09-15T01:18:37.185Z,98.10
2018-09-15T01:21:05.249Z,98.50
2018-09-15T01:23:33.305Z,98.40
2018-09-15T01:26:01.413Z,98.10
2018-09-15T01:28:29.393Z,97.90
2018-09-15T01:30:57.461Z,97.80
2018-09-15T01:33:25.512Z,97.80
2018-09-15T01:35:53.568Z,98.00
2018-09-15T01:38:21.620Z,99.10
2018-09-15T01:40:49.681Z,98.60
2018-09-15T01:43:17.723Z,98.30
2018-09-15T01:45:45.772Z,98.60
2018-09-15T01:48:13.824Z,99.40
2018-09-15T01:50:41.905Z,99.70
2018-09-15T01:53:09.964Z,99.60
2018-09-15T01:55:38.022Z,99.10
2018-09-15T01:58:06.061Z,98.60
2018-09-15T02:00:34.116Z,98.40
2018-09-15T02:03:02.165Z,98.50
2018-09-15T02:05:30.264Z,98.80
2018-09-15T02:07:58.324Z,98.90
2018-09-15T02:10:33.035Z,99.00
2018-09-15T02:13:01.103Z,99.80
2018-09-15T02:15:29.167Z,99.90
2018-09-15T02:17:57.230Z,99.90
2018-09-15T02:20:25.295Z,99.90
2018-09-15T02:22:53.408Z,99.90
2018-09-15T02:25:21.422Z,99.90
2018-09-15T02:27:49.477Z,99.90
2018-09-15T02:30:17.542Z,99.90
2018-09-15T02:32:45.597Z,99.90
2018-09-15T02:35:13.656Z,99.90
2018-09-15T02:37:41.704Z,99.90
2018-09-15T02:40:09.764Z,99.90
2018-09-15T02:42:37.808Z,99.90
2018-09-15T02:45:05.860Z,99.90
2018-09-15T02:47:33.909Z,99.90
2018-09-15T02:50:01.979Z,99.90
2018-09-15T02:52:30.033Z,99.90
2018-09-15T02:54:58.077Z,99.90
2018-09-15T02:57:26.133Z,99.90
2018-09-15T02:59:54.195Z,99.90
2018-09-15T03:02:22.472Z,99.90
2018-09-15T03:04:50.516Z,99.90
2018-09-15T03:07:18.591Z,99.90
2018-09-15T03:09:46.665Z,99.90
2018-09-15T03:12:14.729Z,99.90
2018-09-15T03:14:42.788Z,99.90
2018-09-15T03:17:10.833Z,99.90
2018-09-15T03:19:38.884Z,99.90
2018-09-15T03:22:06.934Z,99.90
2018-09-15T03:24:34.984Z,99.90
2018-09-15T03:27:03.028Z,99.90
2018-09-15T03:29:31.156Z,99.90
2018-09-15T03:31:59.217Z,99.90
2018-09-15T03:34:27.269Z,99.90
2018-09-15T03:36:55.354Z,99.90
2018-09-15T03:39:23.401Z,99.90
2018-09-15T03:41:51.514Z,99.90
2018-09-15T03:44:19.513Z,99.90
2018-09-15T03:46:47.580Z,99.90
2018-09-15T03:49:15.628Z,99.90
2018-09-15T03:51:43.685Z,99.90
2018-09-15T03:54:16.956Z,99.90
2018-09-15T03:56:45.029Z,99.90
2018-09-15T03:59:13.108Z,99.90
2018-09-15T04:01:41.160Z,99.90
2018-09-15T04:04:09.213Z,99.90
2018-09-15T04:06:37.270Z,99.90
2018-09-15T04:09:07.216Z,99.90
2018-09-15T04:11:35.411Z,99.90
2018-09-15T04:14:03.474Z,99.90
2018-09-15T04:16:31.531Z,99.90
2018-09-15T04:18:59.587Z,99.90
2018-09-15T04:21:27.644Z,99.90
2018-09-15T04:23:55.688Z,99.90
2018-09-15T04:26:23.769Z,99.90
2018-09-15T04:28:51.828Z,99.90
2018-09-15T04:31:19.880Z,99.90
2018-09-15T04:33:47.953Z,99.90
2018-09-15T04:36:16.005Z,99.90
2018-09-15T04:38:44.064Z,99.90
2018-09-15T04:41:12.120Z,99.90
2018-09-15T04:43:40.188Z,99.90
2018-09-15T04:46:08.235Z,99.90
2018-09-15T04:48:36.292Z,99.90
2018-09-15T04:51:04.341Z,99.90
2018-09-15T04:53:32.405Z,99.90
2018-09-15T04:56:00.472Z,99.90
2018-09-15T04:58:28.529Z,99.90
2018-09-15T05:00:56.586Z,99.90
2018-09-15T05:03:24.636Z,99.90
2018-09-15T05:05:52.680Z,99.90
2018-09-15T05:08:20.737Z,99.90
2018-09-15T05:10:48.792Z,99.90
2018-09-15T05:13:16.857Z,99.90
2018-09-15T05:15:44.909Z,99.90
2018-09-15T05:18:12.957Z,99.90
2018-09-15T05:20:41.026Z,99.90
2018-09-15T05:23:09.081Z,99.90
2018-09-15T05:25:37.124Z,99.90
2018-09-15T05:28:05.352Z,99.90
2018-09-15T05:30:33.400Z,99.90
2018-09-15T05:33:01.466Z,99.90
2018-09-15T05:35:29.512Z,99.90
2018-09-15T05:37:58.473Z,99.90
2018-09-15T05:40:26.524Z,99.90
2018-09-15T05:42:54.580Z,99.90
2018-09-15T05:45:22.623Z,99.90
2018-09-15T05:47:50.696Z,99.90
2018-09-15T05:50:18.756Z,99.90
2018-09-15T05:52:46.813Z,99.90
2018-09-15T05:55:14.865Z,99.90
2018-09-15T05:57:42.927Z,99.90
2018-09-15T06:00:10.989Z,99.90
2018-09-15T06:02:39.054Z,99.90
2018-09-15T06:05:07.097Z,99.90
2018-09-15T06:07:35.152Z,99.90
2018-09-15T06:10:03.197Z,99.90
2018-09-15T06:12:31.243Z,99.90
2018-09-15T06:14:59.288Z,99.90
2018-09-15T06:17:27.358Z,99.90
2018-09-15T06:19:55.405Z,99.90
2018-09-15T06:22:23.461Z,99.90
2018-09-15T06:24:51.521Z,99.90
2018-09-15T06:27:19.621Z,99.90
2018-09-15T06:29:47.681Z,99.90
2018-09-15T06:32:15.732Z,99.90
2018-09-15T06:34:43.791Z,98.30
2018-09-15T06:37:11.836Z,96.40
2018-09-15T06:39:39.933Z,94.40
2018-09-15T06:42:08.002Z,94.40
2018-09-15T06:44:36.052Z,93.70
2018-09-15T06:47:04.109Z,92.30
2018-09-15T06:49:32.188Z,90.30
2018-09-15T06:52:00.249Z,89.60
2018-09-15T06:54:28.312Z,88.40
2018-09-15T06:56:56.369Z,87.60
2018-09-15T06:59:24.424Z,87.00
2018-09-15T07:01:52.544Z,84.70
2018-09-15T07:04:20.608Z,83.20
2018-09-15T07:06:48.667Z,79.10
2018-09-15T07:09:16.705Z,77.70
2018-09-15T07:11:44.769Z,75.10
2018-09-15T07:14:12.828Z,71.60
2018-09-15T07:16:40.892Z,70.00
2018-09-15T07:19:09.029Z,67.70
2018-09-15T07:21:37.108Z,66.10
2018-09-15T07:24:05.172Z,64.60
2018-09-15T07:26:33.221Z,63.80
2018-09-15T07:29:01.356Z,64.20
2018-09-15T07:31:29.464Z,61.90
2018-09-15T07:33:57.493Z,61.20
2018-09-15T07:36:25.547Z,61.40
2018-09-15T07:38:53.692Z,58.60
2018-09-15T07:41:21.753Z,58.20
2018-09-15T07:43:49.815Z,57.10
2018-09-15T07:46:17.864Z,55.10
2018-09-15T07:48:46.577Z,53.70
2018-09-15T07:51:14.649Z,52.60
2018-09-15T07:53:42.716Z,52.60
2018-09-15T07:56:10.767Z,52.20
2018-09-15T07:58:38.821Z,52.50
2018-09-15T08:01:06.882Z,52.20
2018-09-15T08:03:34.948Z,52.00
2018-09-15T08:06:03.008Z,51.20
2018-09-15T08:08:31.073Z,51.00
2018-09-15T08:10:59.169Z,50.90
2018-09-15T08:13:27.197Z,50.00
2018-09-15T08:15:55.278Z,50.80
2018-09-15T08:18:23.361Z,52.30
2018-09-15T08:20:51.550Z,53.50
2018-09-15T08:23:19.488Z,53.30
2018-09-15T08:25:47.551Z,53.50
2018-09-15T08:28:15.593Z,51.20
2018-09-15T08:30:43.640Z,49.30
2018-09-15T08:33:11.703Z,47.70
2018-09-15T08:35:39.785Z,47.40
2018-09-15T08:38:07.881Z,44.90
2018-09-15T08:40:35.900Z,41.70
2018-09-15T08:43:03.949Z,39.00
2018-09-15T08:45:32.696Z,39.30
2018-09-15T08:48:00.746Z,39.90
2018-09-15T08:50:28.812Z,40.10
2018-09-15T08:52:56.878Z,40.70
2018-09-15T08:55:25.377Z,40.80
2018-09-15T08:57:53.437Z,39.60
2018-09-15T09:00:21.520Z,39.80
2018-09-15T09:02:49.580Z,38.80
2018-09-15T09:05:17.652Z,38.10
2018-09-15T09:07:45.706Z,37.40
2018-09-15T09:10:13.828Z,37.90
2018-09-15T09:12:41.948Z,38.30
2018-09-15T09:15:10.019Z,37.80
2018-09-15T09:17:38.125Z,37.40
2018-09-15T09:20:06.201Z,39.40
2018-09-15T09:22:34.280Z,37.00
2018-09-15T09:25:02.346Z,37.70
2018-09-15T09:27:30.413Z,37.20
2018-09-15T09:29:58.473Z,34.80
2018-09-15T09:32:26.623Z,35.60
2018-09-15T09:34:54.656Z,34.20
2018-09-15T09:37:22.712Z,33.80
2018-09-15T09:39:50.766Z,33.80
2018-09-15T09:42:18.828Z,33.90
2018-09-15T09:44:46.876Z,34.60
2018-09-15T09:47:14.943Z,33.60
2018-09-15T09:49:42.985Z,34.90
2018-09-15T09:52:11.056Z,35.30
2018-09-15T09:54:39.109Z,34.60
2018-09-15T09:57:07.172Z,34.90
2018-09-15T09:59:35.229Z,32.40
2018-09-15T10:02:07.543Z,33.50
2018-09-15T10:04:35.620Z,32.70
2018-09-15T10:07:03.716Z,33.60
2018-09-15T10:09:31.745Z,33.90
2018-09-15T10:11:59.817Z,34.80
2018-09-15T10:14:27.886Z,34.70
2018-09-15T10:16:55.949Z,35.50
2018-09-15T10:19:24.026Z,35.50
2018-09-15T10:21:52.395Z,37.30
2018-09-15T10:24:20.493Z,39.90
2018-09-15T10:26:48.552Z,39.50
2018-09-15T10:29:16.607Z,41.50
2018-09-15T10:31:44.661Z,42.70
2018-09-15T10:34:12.724Z,42.40
2018-09-15T10:36:40.784Z,41.70
2018-09-15T10:39:10.233Z,41.10
2018-09-15T10:41:38.425Z,40.80
2018-09-15T10:44:06.568Z,39.20
2018-09-15T10:46:34.797Z,39.10
2018-09-15T10:49:02.873Z,39.00
2018-09-15T10:51:30.937Z,40.50
2018-09-15T10:53:59.149Z,37.00
2018-09-15T10:56:27.237Z,35.10
2018-09-15T10:58:55.698Z,36.30
2018-09-15T11:01:23.677Z,35.60
2018-09-15T11:03:51.727Z,36.10
2018-09-15T11:06:19.784Z,37.00
2018-09-15T11:08:47.832Z,37.50
2018-09-15T11:11:15.888Z,37.60
2018-09-15T11:13:44.033Z,38.30
2018-09-15T11:16:12.028Z,37.40
2018-09-15T11:18:40.089Z,35.80
2018-09-15T11:21:08.153Z,33.10
2018-09-15T11:23:36.225Z,32.60
2018-09-15T11:26:04.284Z,32.10
2018-09-15T11:28:32.369Z,31.60
2018-09-15T11:31:00.452Z,31.40
2018-09-15T11:33:28.517Z,29.80
2018-09-15T11:35:56.573Z,29.50
2018-09-15T11:38:24.664Z,29.40
2018-09-15T11:40:52.725Z,29.70
2018-09-15T11:43:20.788Z,30.90
2018-09-15T11:45:48.844Z,32.10
2018-09-15T11:48:16.914Z,33.20
2018-09-15T11:50:44.990Z,33.60
2018-09-15T11:53:13.056Z,34.30
2018-09-15T11:55:41.141Z,33.30
2018-09-15T11:58:09.213Z,32.40
2018-09-15T12:00:39.475Z,32.60
2018-09-15T12:03:07.648Z,31.80
2018-09-15T12:05:35.708Z,32.90
2018-09-15T12:08:03.773Z,33.50
2018-09-15T12:10:31.823Z,35.50
2018-09-15T12:12:59.911Z,36.10
2018-09-15T12:15:27.984Z,37.10
2018-09-15T12:17:56.040Z,38.00
2018-09-15T12:20:24.104Z,38.90
2018-09-15T12:22:52.181Z,38.60
2018-09-15T12:25:20.241Z,39.50
2018-09-15T12:27:48.427Z,40.30
2018-09-15T12:30:16.465Z,40.40
2018-09-15T12:32:44.553Z,40.70
2018-09-15T12:35:12.608Z,41.40
2018-09-15T12:37:40.673Z,41.70
2018-09-15T12:40:08.719Z,41.60
2018-09-15T12:42:36.884Z,42.50
2018-09-15T12:45:05.004Z,42.90
2018-09-15T12:47:33.032Z,42.70
2018-09-15T12:50:01.077Z,41.90
2018-09-15T12:52:29.132Z,41.50
2018-09-15T12:54:57.177Z,41.70
2018-09-15T12:57:25.234Z,42.90
2018-09-15T12:59:53.288Z,42.30
2018-09-15T13:02:23.116Z,41.00
2018-09-15T13:04:51.211Z,40.50
2018-09-15T13:07:19.289Z,37.80
2018-09-15T13:09:47.352Z,37.60
2018-09-15T13:12:15.486Z,37.80
2018-09-15T13:14:43.472Z,38.70
2018-09-15T13:17:11.592Z,37.80
2018-09-15T13:19:39.628Z,37.90
2018-09-15T13:22:07.677Z,37.00
2018-09-15T13:24:35.746Z,37.00
2018-09-15T13:27:03.796Z,36.70
2018-09-15T13:29:31.921Z,37.60
2018-09-15T13:31:59.962Z,37.10
2018-09-15T13:34:28.016Z,38.20
2018-09-15T13:36:56.267Z,37.70
2018-09-15T13:39:24.285Z,39.60
2018-09-15T13:41:52.349Z,38.20
2018-09-15T13:44:20.399Z,39.40
2018-09-15T13:46:48.533Z,39.10
2018-09-15T13:49:16.526Z,39.40
2018-09-15T13:51:44.596Z,40.00
2018-09-15T13:54:12.652Z,38.30
2018-09-15T13:56:40.709Z,38.20
2018-09-15T13:59:08.759Z,39.70
2018-09-15T14:01:36.812Z,39.20
2018-09-15T14:04:04.873Z,40.20
2018-09-15T14:06:32.939Z,40.00
2018-09-15T14:09:00.986Z,41.20
2018-09-15T14:11:29.044Z,39.90
2018-09-15T14:13:57.125Z,40.20
2018-09-15T14:16:25.255Z,40.70
2018-09-15T14:18:53.261Z,39.40
2018-09-15T14:21:21.313Z,39.50
2018-09-15T14:23:49.380Z,40.30
2018-09-15T14:26:17.432Z,41.50
2018-09-15T14:28:45.749Z,41.20
2018-09-15T14:31:13.795Z,40.70
2018-09-15T14:33:41.856Z,40.30
2018-09-15T14:36:09.921Z,40.40
2018-09-15T14:38:38.026Z,40.60
2018-09-15T14:41:06.057Z,41.60
2018-09-15T14:43:34.177Z,41.50
2018-09-15T14:46:02.252Z,41.30
2018-09-15T14:48:30.380Z,42.10
2018-09-15T14:50:58.366Z,41.60
2018-09-15T14:53:26.452Z,40.30
2018-09-15T14:55:54.549Z,39.20
2018-09-15T14:58:22.603Z,39.70
2018-09-15T15:00:50.755Z,40.10
2018-09-15T15:03:18.751Z,40.30
2018-09-15T15:05:46.816Z,40.80
2018-09-15T15:08:14.860Z,39.90
2018-09-15T15:10:42.960Z,40.60
2018-09-15T15:13:11.025Z,40.60
2018-09-15T15:15:39.108Z,41.10
2018-09-15T15:18:07.153Z,41.30
2018-09-15T15:20:35.217Z,40.80
2018-09-15T15:23:03.267Z,41.00
2018-09-15T15:25:31.342Z,41.40
2018-09-15T15:27:59.388Z,41.50
2018-09-15T15:30:27.440Z,42.60
2018-09-15T15:32:55.494Z,42.40
2018-09-15T15:35:23.610Z,42.70
2018-09-15T15:37:51.613Z,43.00
2018-09-15T15:40:19.676Z,43.70
2018-09-15T15:42:47.805Z,43.60
2018-09-15T15:45:15.885Z,43.10
2018-09-15T15:47:43.957Z,44.00
2018-09-15T15:50:12.117Z,44.00
2018-09-15T15:52:40.185Z,44.60
2018-09-15T15:55:08.242Z,46.20
2018-09-15T15:57:36.307Z,44.70
2018-09-15T16:00:05.058Z,46.00
2018-09-15T16:02:33.189Z,46.30
2018-09-15T16:05:01.253Z,46.30
2018-09-15T16:07:29.305Z,46.80
2018-09-15T16:09:57.361Z,47.00
2018-09-15T16:12:25.412Z,47.30
2018-09-15T16:14:53.477Z,48.40
2018-09-15T16:17:21.532Z,49.50
2018-09-15T16:19:49.623Z,49.00
2018-09-15T16:22:17.632Z,48.70
2018-09-15T16:24:45.693Z,49.20
2018-09-15T16:27:13.757Z,50.10
2018-09-15T16:29:41.833Z,50.10
2018-09-15T16:32:09.888Z,49.70
2018-09-15T16:34:37.942Z,49.40
2018-09-15T16:37:06.089Z,49.80
2018-09-15T16:39:34.154Z,49.60
2018-09-15T16:42:02.220Z,49.10
2018-09-15T16:44:30.268Z,48.70
2018-09-15T16:46:58.332Z,48.90
2018-09-15T16:49:26.381Z,50.00
2018-09-15T16:51:54.447Z,50.70
2018-09-15T16:54:22.496Z,50.50
2018-09-15T16:56:50.553Z,52.20
2018-09-15T16:59:18.599Z,52.90
2018-09-15T17:01:46.655Z,52.60
2018-09-15T17:04:14.705Z,54.40
2018-09-15T17:06:42.775Z,55.80
2018-09-15T17:09:11.725Z,58.30
2018-09-15T17:11:39.785Z,59.80
2018-09-15T17:14:07.861Z,61.40
2018-09-15T17:16:35.990Z,59.70
2018-09-15T17:19:04.260Z,58.30
2018-09-15T17:21:32.460Z,58.20
2018-09-15T17:24:00.499Z,59.10
2018-09-15T17:26:28.560Z,60.40
2018-09-15T17:28:56.609Z,62.50
2018-09-15T17:31:24.811Z,64.20
2018-09-15T17:33:52.752Z,65.00
2018-09-15T17:36:20.836Z,65.80
2018-09-15T17:38:48.885Z,65.90
2018-09-15T17:41:16.990Z,67.30
2018-09-15T17:43:45.057Z,67.80
2018-09-15T17:46:13.105Z,68.60
2018-09-15T17:48:41.157Z,68.60
2018-09-15T17:51:09.217Z,69.10
2018-09-15T17:53:37.265Z,70.30
2018-09-15T17:56:05.329Z,71.10
2018-09-15T17:58:33.372Z,71.90
2018-09-15T18:01:01.433Z,72.60
2018-09-15T18:03:29.503Z,73.40
2018-09-15T18:05:57.532Z,74.10
2018-09-15T18:08:25.576Z,74.90
2018-09-15T18:10:53.649Z,76.40
2018-09-15T18:13:21.706Z,77.50
2018-09-15T18:15:49.797Z,77.70
2018-09-15T18:18:17.844Z,78.50
2018-09-15T18:20:45.968Z,80.00
2018-09-15T18:23:14.009Z,81.60
2018-09-15T18:25:42.111Z,81.80
2018-09-15T18:28:10.201Z,82.70
2018-09-15T18:30:38.237Z,83.60
2018-09-15T18:33:06.067Z,84.50
2018-09-15T18:35:34.124Z,85.00
2018-09-15T18:38:02.188Z,86.90
2018-09-15T18:40:30.240Z,87.80
2018-09-15T18:42:58.350Z,89.20
2018-09-15T18:45:26.356Z,90.10
2018-09-15T18:47:54.408Z,90.10
2018-09-15T18:50:22.461Z,90.50
2018-09-15T18:52:50.508Z,90.80
2018-09-15T18:55:18.552Z,90.90
2018-09-15T18:57:46.617Z,91.30
2018-09-15T19:00:14.735Z,92.00
2018-09-15T19:02:42.726Z,92.00
2018-09-15T19:05:10.793Z,92.40
2018-09-15T19:07:39.078Z,92.30
2018-09-15T19:10:07.147Z,92.60
2018-09-15T19:12:35.208Z,92.90
2018-09-15T19:15:03.266Z,93.80
2018-09-15T19:17:31.319Z,94.30
2018-09-15T19:19:59.358Z,94.70
2018-09-15T19:22:27.436Z,95.30
2018-09-15T19:24:55.497Z,95.50
2018-09-15T19:27:23.548Z,95.80
2018-09-15T19:29:51.597Z,95.70
2018-09-15T19:32:19.669Z,95.40
2018-09-15T19:34:47.717Z,94.80
2018-09-15T19:37:15.780Z,94.80
2018-09-15T19:39:43.833Z,95.20
2018-09-15T19:42:11.909Z,96.20
2018-09-15T19:44:39.960Z,96.50
2018-09-15T19:47:08.016Z,96.40
2018-09-15T19:49:36.069Z,96.10
2018-09-15T19:52:10.981Z,96.60
2018-09-15T19:54:39.025Z,96.40
2018-09-15T19:57:07.079Z,96.50
2018-09-15T19:59:35.124Z,96.70
2018-09-15T20:02:03.192Z,97.00
2018-09-15T20:04:31.248Z,97.40
2018-09-15T20:06:59.325Z,97.30
2018-09-15T20:09:27.372Z,97.20
2018-09-15T20:11:55.429Z,97.10
2018-09-15T20:14:23.560Z,97.30
2018-09-15T20:16:50.875Z,97.10
2018-09-15T20:19:18.029Z,97.10
2018-09-15T20:21:45.164Z,96.90
2018-09-15T20:24:13.213Z,96.30
2018-09-15T20:26:41.260Z,95.90
2018-09-15T20:29:09.316Z,96.00
2018-09-15T20:31:37.445Z,96.40
2018-09-15T20:34:05.489Z,96.50
2018-09-15T20:36:33.561Z,96.80
2018-09-15T20:39:01.616Z,97.40
2018-09-15T20:41:29.665Z,97.90
2018-09-15T20:43:57.756Z,97.90
2018-09-15T20:46:25.764Z,98.00
2018-09-15T20:48:53.832Z,98.50
2018-09-15T20:51:21.864Z,98.50
2018-09-15T20:53:49.917Z,98.10
2018-09-15T20:56:17.974Z,97.90
2018-09-15T20:58:46.029Z,97.50
2018-09-15T21:01:14.077Z,97.50
2018-09-15T21:03:42.148Z,97.50
2018-09-15T21:06:10.192Z,97.20
2018-09-15T21:08:38.248Z,97.20
2018-09-15T21:11:06.371Z,97.60
2018-09-15T21:13:34.439Z,98.00
2018-09-15T21:16:02.528Z,98.30
2018-09-15T21:18:30.551Z,98.20
2018-09-15T21:20:58.617Z,98.90
2018-09-15T21:23:26.668Z,99.10
2018-09-15T21:25:54.725Z,99.90
2018-09-15T21:28:22.781Z,99.80
2018-09-15T21:30:51.022Z,99.90
2018-09-15T21:33:19.223Z,99.70
2018-09-15T21:35:47.264Z,99.50
2018-09-15T21:38:15.317Z,99.10
2018-09-15T21:40:43.496Z,99.10
2018-09-15T21:43:11.690Z,99.20
2018-09-15T21:45:39.732Z,99.30
2018-09-15T21:48:08.097Z,99.20
2018-09-15T21:50:36.141Z,98.90
2018-09-15T21:53:04.207Z,98.90
2018-09-15T21:55:32.306Z,99.30
2018-09-15T21:58:00.362Z,99.90
2018-09-15T22:00:28.421Z,99.90
2018-09-15T22:02:56.482Z,99.90
2018-09-15T22:05:24.536Z,99.90
2018-09-15T22:07:52.593Z,99.90
2018-09-15T22:10:20.657Z,99.90
2018-09-15T22:12:48.735Z,99.90
2018-09-15T22:15:24.581Z,99.90
2018-09-15T22:17:53.173Z,99.90
2018-09-15T22:20:21.220Z,99.90
2018-09-15T22:22:49.301Z,99.90
2018-09-15T22:25:17.442Z,99.90
2018-09-15T22:27:45.479Z,99.90
2018-09-15T22:30:13.541Z,99.90
2018-09-15T22:32:41.588Z,99.90
2018-09-15T22:35:09.653Z,99.90
2018-09-15T22:37:37.701Z,99.90
2018-09-15T22:40:05.767Z,99.90
2018-09-15T22:42:33.820Z,99.90
2018-09-15T22:45:01.873Z,99.90
2018-09-15T22:47:29.921Z,99.90
2018-09-15T22:49:57.979Z,99.90
2018-09-15T22:52:26.029Z,99.90
2018-09-15T22:54:54.094Z,99.90
2018-09-15T22:57:22.145Z,99.90
2018-09-15T22:59:50.201Z,99.90
2018-09-15T23:02:18.291Z,99.90
2018-09-15T23:04:46.345Z,99.90
2018-09-15T23:07:14.383Z,99.90
2018-09-15T23:09:42.441Z,99.90
2018-09-15T23:12:10.492Z,99.90
2018-09-15T23:14:38.551Z,99.90
2018-09-15T23:17:06.590Z,99.90
2018-09-15T23:19:34.640Z,99.90
2018-09-15T23:22:02.693Z,99.90
2018-09-15T23:24:30.758Z,99.90
2018-09-15T23:26:58.799Z,99.90
2018-09-15T23:29:26.880Z,99.90
2018-09-15T23:31:54.916Z,99.90
2018-09-15T23:34:22.981Z,99.90
2018-09-15T23:36:51.028Z,99.90
2018-09-15T23:39:19.076Z,99.90
2018-09-15T23:41:47.131Z,99.90
2018-09-15T23:44:15.185Z,99.90
2018-09-15T23:46:43.240Z,99.90
2018-09-15T23:49:11.308Z,99.90
2018-09-15T23:51:39.358Z,99.90
2018-09-15T23:54:07.407Z,99.90
2018-09-15T23:56:35.465Z,99.90
2018-09-15T23:59:03.517Z,99.90
